Time;durP1;ratioP1;P1;durP2;ratioP2;P2;SDS_P1;SDS_P2;PMS_P1;PMS_P2;Temp;Humidity;BMP_temperature;BMP_pressure;BME280_temperature;BME280_humidity;BME280_pressure;Samples;Min_cycle;Max_cycle;Signal;HPM_P1;HPM_P2
2021/08/17 00:00:35;;;;;;;21.92;6.40;;;13.40;99.90;;;;;;5094032;28;20040;-55
2021/08/17 00:03:02;;;;;;;22.88;5.60;;;13.40;99.90;;;;;;5087655;28;20125;-55
2021/08/17 00:05:28;;;;;;;23.40;6.97;;;13.30;99.90;;;;;;5087196;28;20052;-56
2021/08/17 00:07:55;;;;;;;24.77;6.50;;;13.30;99.90;;;;;;5087334;28;20040;-57
2021/08/17 00:10:22;;;;;;;17.65;5.18;;;13.30;99.90;;;;;;5074396;28;20488;-57
2021/08/17 00:12:49;;;;;;;17.42;5.40;;;13.40;99.90;;;;;;5094766;28;20118;-57
2021/08/17 00:15:15;;;;;;;17.08;6.00;;;13.40;99.90;;;;;;5087970;28;20050;-57
2021/08/17 00:17:41;;;;;;;21.20;5.30;;;13.40;99.90;;;;;;5077089;28;20044;-57
2021/08/17 00:20:08;;;;;;;18.48;5.72;;;13.30;99.90;;;;;;5085881;28;20145;-56
2021/08/17 00:22:38;;;;;;;22.10;5.78;;;13.30;99.90;;;;;;5086608;28;20066;-57
2021/08/17 00:25:06;;;;;;;22.30;5.07;;;13.30;99.90;;;;;;5089511;28;20148;-57
2021/08/17 00:27:33;;;;;;;24.60;4.93;;;13.30;99.90;;;;;;5089465;28;20488;-58
2021/08/17 00:29:59;;;;;;;21.25;5.95;;;13.20;99.90;;;;;;5089833;28;20135;-57
2021/08/17 00:32:25;;;;;;;24.13;5.40;;;13.20;99.90;;;;;;5093283;28;20495;-58
2021/08/17 00:34:52;;;;;;;20.65;5.57;;;13.10;99.90;;;;;;5092201;28;20044;-58
2021/08/17 00:37:18;;;;;;;23.63;5.57;;;13.10;99.90;;;;;;5089146;28;20048;-58
2021/08/17 00:39:45;;;;;;;17.95;4.63;;;13.10;99.90;;;;;;5089837;28;20519;-58
2021/08/17 00:42:11;;;;;;;18.65;5.13;;;13.10;99.90;;;;;;5090335;28;20515;-58
2021/08/17 00:44:40;;;;;;;13.48;4.63;;;13.10;99.90;;;;;;5092533;28;20503;-58
2021/08/17 00:47:08;;;;;;;21.77;5.40;;;13.00;99.90;;;;;;5094288;28;20040;-58
2021/08/17 00:49:35;;;;;;;22.58;5.47;;;13.00;99.90;;;;;;5089185;28;20052;-58
2021/08/17 00:52:09;;;;;;;23.00;5.40;;;13.00;99.90;;;;;;5089467;28;20041;-58
2021/08/17 00:54:45;;;;;;;18.77;5.47;;;13.00;99.90;;;;;;5088565;28;20052;-58
2021/08/17 00:57:14;;;;;;;22.33;5.15;;;13.00;99.90;;;;;;5089001;28;20547;-58
2021/08/17 00:59:44;;;;;;;18.20;5.32;;;13.00;99.90;;;;;;5089223;28;20054;-58
2021/08/17 01:02:10;;;;;;;15.55;5.20;;;12.90;99.90;;;;;;5092823;28;20044;-58
2021/08/17 01:04:41;;;;;;;19.88;5.35;;;13.00;99.90;;;;;;5089779;28;20078;-58
2021/08/17 01:07:08;;;;;;;16.92;4.80;;;12.90;99.90;;;;;;5089986;28;20052;-58
2021/08/17 01:09:37;;;;;;;18.95;5.88;;;12.90;99.90;;;;;;5087303;28;20056;-58
2021/08/17 01:12:04;;;;;;;14.63;4.78;;;12.90;99.90;;;;;;5088080;28;20052;-58
2021/08/17 01:14:30;;;;;;;17.50;4.88;;;12.90;99.90;;;;;;5077241;28;20104;-58
2021/08/17 01:16:57;;;;;;;12.98;4.72;;;12.80;99.90;;;;;;5089642;28;20051;-58
2021/08/17 01:19:24;;;;;;;16.08;3.83;;;12.80;99.90;;;;;;5088849;28;20056;-58
2021/08/17 01:21:55;;;;;;;16.65;5.00;;;12.80;99.90;;;;;;5088999;28;20066;-58
2021/08/17 01:24:23;;;;;;;14.10;4.35;;;12.80;99.90;;;;;;5090300;28;20060;-58
2021/08/17 01:26:49;;;;;;;15.32;4.75;;;12.90;99.90;;;;;;5088671;28;20075;-58
2021/08/17 01:29:21;;;;;;;21.23;5.50;;;12.90;99.90;;;;;;5089324;28;20048;-58
2021/08/17 01:31:47;;;;;;;17.50;5.00;;;13.00;99.90;;;;;;5070860;28;20135;-58
2021/08/17 01:34:13;;;;;;;17.60;4.40;;;13.00;99.90;;;;;;5087447;28;20076;-58
2021/08/17 01:36:42;;;;;;;15.98;4.78;;;13.00;99.90;;;;;;5092053;28;20047;-58
2021/08/17 01:39:08;;;;;;;18.77;4.70;;;13.00;99.90;;;;;;5088081;28;20052;-58
2021/08/17 01:41:35;;;;;;;16.35;5.18;;;13.00;99.90;;;;;;5088205;28;20048;-58
2021/08/17 01:44:12;;;;;;;12.63;4.15;;;13.00;99.90;;;;;;5089704;28;20074;-58
2021/08/17 01:46:45;;;;;;;17.90;5.30;;;13.10;99.90;;;;;;5085776;28;20480;-58
2021/08/17 01:49:13;;;;;;;20.50;5.30;;;13.20;99.90;;;;;;5077448;28;20055;-57
2021/08/17 01:51:39;;;;;;;13.90;4.32;;;13.20;99.90;;;;;;5089208;28;20052;-57
2021/08/17 01:54:06;;;;;;;16.38;5.03;;;13.20;99.90;;;;;;5091243;28;20492;-57
2021/08/17 01:56:35;;;;;;;13.95;4.32;;;13.30;99.90;;;;;;5089383;28;20256;-58
2021/08/17 01:59:04;;;;;;;11.68;4.65;;;13.30;99.90;;;;;;5088800;28;20056;-57
2021/08/17 02:01:31;;;;;;;15.30;4.93;;;13.20;99.90;;;;;;5090691;28;20104;-58
2021/08/17 02:03:57;;;;;;;18.85;5.00;;;13.20;99.90;;;;;;5086499;28;20052;-58
2021/08/17 02:06:23;;;;;;;16.30;4.70;;;13.30;99.90;;;;;;5082264;28;20040;-57
2021/08/17 02:08:52;;;;;;;14.75;4.28;;;13.20;99.90;;;;;;5087529;28;20480;-58
2021/08/17 02:11:19;;;;;;;15.45;4.22;;;13.30;99.90;;;;;;5068671;28;20051;-57
2021/08/17 02:13:45;;;;;;;15.40;4.20;;;13.20;99.90;;;;;;5087662;28;20055;-58
2021/08/17 02:16:13;;;;;;;13.98;3.97;;;13.30;99.90;;;;;;5089433;28;20074;-57
2021/08/17 02:18:40;;;;;;;17.70;4.80;;;13.30;99.90;;;;;;5086310;28;20044;-57
2021/08/17 02:21:08;;;;;;;16.77;4.82;;;13.30;99.90;;;;;;5094220;28;20048;-57
2021/08/17 02:23:35;;;;;;;12.10;4.28;;;13.30;99.90;;;;;;5088894;28;20449;-57
2021/08/17 02:26:02;;;;;;;16.58;3.95;;;13.30;99.90;;;;;;5088216;28;20052;-58
2021/08/17 02:28:28;;;;;;;12.45;4.18;;;13.40;99.90;;;;;;5087363;28;20573;-58
2021/08/17 02:30:55;;;;;;;17.55;4.03;;;13.30;99.90;;;;;;5069559;28;20044;-57
2021/08/17 02:33:21;;;;;;;17.08;4.00;;;13.40;99.90;;;;;;5088231;28;20563;-57
2021/08/17 02:35:49;;;;;;;12.95;3.80;;;13.30;99.90;;;;;;5088238;28;20043;-57
2021/08/17 02:38:15;;;;;;;13.43;3.65;;;13.20;99.90;;;;;;5087134;28;20144;-57
2021/08/17 02:40:42;;;;;;;12.00;3.40;;;13.30;99.90;;;;;;5090391;28;20049;-57
2021/08/17 02:43:08;;;;;;;12.70;3.55;;;13.20;99.90;;;;;;5066344;28;20056;-57
2021/08/17 02:45:37;;;;;;;12.10;3.80;;;13.20;99.90;;;;;;5087962;28;20518;-57
2021/08/17 02:48:04;;;;;;;14.43;3.65;;;13.20;99.90;;;;;;5092452;28;20040;-57
2021/08/17 02:50:30;;;;;;;16.50;3.20;;;13.20;99.90;;;;;;5084491;28;20052;-57
2021/08/17 02:52:56;;;;;;;12.63;3.50;;;13.20;99.90;;;;;;5087027;28;20059;-57
2021/08/17 02:55:23;;;;;;;11.75;3.30;;;13.10;99.90;;;;;;5053312;28;20132;-57
2021/08/17 02:57:50;;;;;;;10.93;2.90;;;13.10;99.90;;;;;;5087471;28;20559;-57
2021/08/17 03:00:18;;;;;;;15.18;3.15;;;13.10;99.90;;;;;;5049944;28;20049;-55
2021/08/17 03:02:44;;;;;;;16.33;3.72;;;13.00;99.90;;;;;;5058200;28;20052;-56
2021/08/17 03:05:11;;;;;;;12.85;3.22;;;12.90;99.90;;;;;;5066369;28;20052;-57
2021/08/17 03:07:53;;;;;;;16.88;3.30;;;12.90;99.90;;;;;;5070089;28;20066;-56
2021/08/17 03:10:21;;;;;;;;;;;12.80;99.90;;;;;;5066586;28;20056;-56
2021/08/17 03:12:48;;;;;;;13.70;3.15;;;12.80;99.90;;;;;;5067344;28;19925;-57
2021/08/17 03:15:14;;;;;;;15.45;3.30;;;12.80;99.90;;;;;;5068404;28;20037;-56
2021/08/17 03:17:43;;;;;;;19.13;4.03;;;12.70;99.90;;;;;;5066177;28;20079;-57
2021/08/17 03:20:10;;;;;;;13.55;3.65;;;12.70;99.90;;;;;;5065778;28;20067;-56
2021/08/17 03:22:40;;;;;;;15.95;3.33;;;12.70;99.90;;;;;;5074358;28;20469;-56
2021/08/17 03:25:09;;;;;;;17.13;4.05;;;12.70;99.90;;;;;;5065641;28;20044;-56
2021/08/17 03:27:38;;;;;;;14.45;3.13;;;12.70;99.90;;;;;;5065431;28;20044;-57
2021/08/17 03:30:14;;;;;;;12.13;3.42;;;12.60;99.90;;;;;;5067088;28;20090;-55
2021/08/17 03:32:41;;;;;;;17.10;3.53;;;12.60;99.90;;;;;;5069864;28;20525;-57
2021/08/17 03:35:08;;;;;;;14.93;3.05;;;12.60;99.90;;;;;;5065035;28;20056;-56
2021/08/17 03:37:37;;;;;;;15.07;3.17;;;12.60;99.90;;;;;;5059427;28;20044;-56
2021/08/17 03:40:15;;;;;;;14.43;2.78;;;12.50;99.90;;;;;;5067090;28;20063;-56
2021/08/17 03:42:41;;;;;;;15.68;2.97;;;12.50;99.90;;;;;;5067065;28;20468;-56
2021/08/17 03:45:12;;;;;;;13.60;2.67;;;12.50;99.90;;;;;;5066863;28;20143;-55
2021/08/17 03:47:38;;;;;;;12.77;3.35;;;12.40;99.90;;;;;;5066870;28;20143;-57
2021/08/17 03:50:06;;;;;;;12.93;3.03;;;12.40;99.90;;;;;;5066107;28;20057;-56
2021/08/17 03:52:33;;;;;;;16.63;3.53;;;12.40;99.90;;;;;;5060555;28;20104;-56
2021/08/17 03:55:02;;;;;;;10.40;3.15;;;12.40;99.90;;;;;;5061847;28;20071;-57
2021/08/17 03:57:28;;;;;;;17.25;3.03;;;12.40;99.90;;;;;;5072577;28;20048;-56
2021/08/17 03:59:57;;;;;;;13.32;2.80;;;12.50;99.90;;;;;;5083786;28;20052;-55
2021/08/17 04:02:27;;;;;;;11.25;3.03;;;12.50;99.90;;;;;;5091089;28;20048;-55
2021/08/17 04:04:56;;;;;;;18.63;3.40;;;12.40;99.90;;;;;;5091380;28;20047;-55
2021/08/17 04:07:22;;;;;;;13.70;3.35;;;12.40;99.90;;;;;;5090686;28;20044;-55
2021/08/17 04:09:50;;;;;;;12.85;3.08;;;12.40;99.90;;;;;;5088528;28;20044;-55
2021/08/17 04:12:16;;;;;;;15.75;2.70;;;12.40;99.90;;;;;;5086421;28;20078;-55
2021/08/17 04:14:43;;;;;;;9.95;2.67;;;12.40;99.90;;;;;;5089614;28;20059;-55
2021/08/17 04:17:11;;;;;;;14.23;2.95;;;12.40;99.90;;;;;;5084913;28;20079;-55
2021/08/17 04:19:38;;;;;;;15.00;3.20;;;12.40;99.90;;;;;;5087775;28;20052;-55
2021/08/17 04:22:06;;;;;;;12.65;3.10;;;12.40;99.90;;;;;;5090284;28;20551;-54
2021/08/17 04:24:32;;;;;;;13.52;2.92;;;12.40;99.90;;;;;;5085705;28;20494;-55
2021/08/17 04:26:58;;;;;;;12.80;3.05;;;12.40;99.90;;;;;;5090180;28;20052;-54
2021/08/17 04:29:24;;;;;;;13.48;2.85;;;12.30;99.90;;;;;;5091233;28;20074;-54
2021/08/17 04:31:51;;;;;;;12.43;2.80;;;12.40;99.90;;;;;;5072869;28;20130;-56
2021/08/17 04:34:17;;;;;;;15.40;3.33;;;12.40;99.90;;;;;;5094112;28;20046;-55
2021/08/17 04:36:47;;;;;;;13.75;3.00;;;12.40;99.90;;;;;;5091807;28;20117;-55
2021/08/17 04:39:14;;;;;;;11.90;3.20;;;12.40;99.90;;;;;;5090294;28;20052;-53
2021/08/17 04:41:43;;;;;;;16.52;3.70;;;12.40;99.90;;;;;;5088874;28;20043;-56
2021/08/17 04:44:09;;;;;;;16.25;3.30;;;12.40;99.90;;;;;;5089552;28;20044;-56
2021/08/17 04:46:38;;;;;;;13.43;3.50;;;12.50;99.90;;;;;;5090517;28;20055;-55
2021/08/17 04:49:06;;;;;;;11.57;2.97;;;12.50;99.90;;;;;;5089148;28;20052;-56
2021/08/17 04:51:35;;;;;;;10.13;2.80;;;12.60;99.90;;;;;;5087899;28;20048;-56
2021/08/17 04:54:01;;;;;;;12.70;4.38;;;12.70;99.90;;;;;;5090592;28;20053;-56
2021/08/17 04:56:29;;;;;;;14.80;3.28;;;12.70;99.90;;;;;;5094130;28;20106;-56
2021/08/17 04:58:55;;;;;;;14.23;3.28;;;12.80;99.90;;;;;;5089210;28;20133;-55
2021/08/17 05:01:24;;;;;;;12.13;3.35;;;12.80;99.90;;;;;;5086725;28;20055;-56
2021/08/17 05:03:53;;;;;;;15.43;3.38;;;12.90;99.90;;;;;;5091017;28;20043;-56
2021/08/17 05:06:19;;;;;;;13.35;3.25;;;12.90;99.90;;;;;;5072628;28;20048;-56
2021/08/17 05:08:45;;;;;;;18.48;3.00;;;13.00;99.90;;;;;;5091095;28;20720;-56
2021/08/17 05:11:12;;;;;;;10.90;3.42;;;13.00;99.90;;;;;;5085891;28;20048;-56
2021/08/17 05:13:38;;;;;;;12.23;3.33;;;13.10;99.90;;;;;;5081871;28;20061;-53
2021/08/17 05:16:05;;;;;;;13.38;3.75;;;13.20;99.90;;;;;;5068368;28;20058;-54
2021/08/17 05:18:34;;;;;;;12.73;2.80;;;13.30;99.90;;;;;;5086450;28;20085;-54
2021/08/17 05:21:00;;;;;;;14.93;3.83;;;13.40;99.90;;;;;;5089812;28;20052;-50
2021/08/17 05:23:27;;;;;;;16.98;3.80;;;13.40;99.90;;;;;;5089830;28;20109;-53
2021/08/17 05:25:56;;;;;;;12.65;3.38;;;13.50;99.90;;;;;;5089977;28;20040;-54
2021/08/17 05:28:23;;;;;;;8.85;3.40;;;13.50;99.90;;;;;;5090605;28;20062;-53
2021/08/17 05:30:50;;;;;;;14.52;3.38;;;13.60;99.90;;;;;;5089489;28;20087;-52
2021/08/17 05:33:16;;;;;;;11.35;3.05;;;13.60;99.90;;;;;;5089430;28;20510;-51
2021/08/17 05:35:46;;;;;;;11.00;3.80;;;13.70;99.90;;;;;;5094826;28;20477;-50
2021/08/17 05:38:12;;;;;;;13.05;3.78;;;13.70;99.90;;;;;;5096109;28;20052;-51
2021/08/17 05:40:41;;;;;;;13.35;3.67;;;13.80;99.90;;;;;;5089324;28;20064;-52
2021/08/17 05:43:07;;;;;;;13.63;3.13;;;13.90;99.90;;;;;;5090281;28;20090;-49
2021/08/17 05:45:34;;;;;;;13.63;3.63;;;14.00;99.90;;;;;;5085437;28;20176;-51
2021/08/17 05:48:00;;;;;;;10.50;4.07;;;14.00;99.90;;;;;;5094150;28;20036;-54
2021/08/17 05:50:28;;;;;;;49.42;37.95;;;14.10;99.90;;;;;;5089768;28;20084;-51
2021/08/17 05:52:56;;;;;;;54.90;39.17;;;14.10;99.90;;;;;;5094553;28;20123;-50
2021/08/17 05:55:23;;;;;;;32.28;20.92;;;14.20;99.90;;;;;;5089079;28;20051;-51
2021/08/17 05:58:04;;;;;;;45.00;30.85;;;14.40;99.90;;;;;;5073353;28;20498;-49
2021/08/17 06:00:30;;;;;;;14.82;6.88;;;14.50;99.90;;;;;;5079690;28;20048;-50
2021/08/17 06:02:57;;;;;;;15.75;5.13;;;14.60;99.90;;;;;;5088826;28;20500;-52
2021/08/17 06:05:26;;;;;;;17.65;5.43;;;14.80;99.90;;;;;;5089108;28;20044;-50
2021/08/17 06:07:52;;;;;;;18.38;6.60;;;15.00;99.90;;;;;;5071349;28;20566;-51
2021/08/17 06:10:18;;;;;;;21.92;11.05;;;15.00;99.90;;;;;;5090405;28;20036;-54
2021/08/17 06:12:45;;;;;;;47.22;33.20;;;15.00;99.90;;;;;;5088665;28;20048;-52
2021/08/17 06:15:13;;;;;;;31.55;20.40;;;15.00;99.90;;;;;;5086395;28;20170;-51
2021/08/17 06:17:40;;;;;;;39.92;31.48;;;15.00;99.90;;;;;;5088335;28;20117;-52
2021/08/17 06:20:08;;;;;;;44.45;34.78;;;15.00;99.90;;;;;;5084438;28;20075;-51
2021/08/17 06:22:37;;;;;;;22.65;10.23;;;15.00;99.90;;;;;;5085216;28;20521;-54
2021/08/17 06:25:06;;;;;;;17.50;6.43;;;15.00;99.90;;;;;;5070659;28;20055;-53
2021/08/17 06:27:34;;;;;;;19.67;13.63;;;15.00;99.90;;;;;;5085126;28;20059;-55
2021/08/17 06:30:00;;;;;;;11.85;5.10;;;15.00;99.90;;;;;;5084394;28;20048;-52
2021/08/17 06:32:26;;;;;;;17.42;5.43;;;15.00;99.90;;;;;;5086040;28;20059;-52
2021/08/17 06:34:53;;;;;;;12.40;4.18;;;15.20;99.90;;;;;;5085357;28;20063;-52
2021/08/17 06:37:19;;;;;;;10.13;3.95;;;15.40;99.90;;;;;;5084793;28;20516;-53
2021/08/17 06:39:45;;;;;;;17.92;7.57;;;15.60;99.90;;;;;;5084150;28;20048;-52
2021/08/17 06:42:12;;;;;;;8.82;4.32;;;15.80;99.90;;;;;;5086963;28;20053;-54
2021/08/17 06:44:42;;;;;;;40.95;33.97;;;15.90;99.90;;;;;;5084213;28;20055;-57
2021/08/17 06:47:08;;;;;;;15.20;6.95;;;15.90;99.90;;;;;;5069813;28;20074;-52
2021/08/17 06:49:34;;;;;;;28.67;20.23;;;15.90;99.90;;;;;;5091258;28;20036;-55
2021/08/17 06:52:01;;;;;;;14.75;8.90;;;15.80;99.90;;;;;;5069556;28;20129;-52
2021/08/17 06:54:27;;;;;;;23.60;17.95;;;15.70;99.90;;;;;;5076949;28;20514;-53
2021/08/17 06:56:53;;;;;;;12.52;5.85;;;15.70;99.90;;;;;;5086892;28;20136;-52
2021/08/17 06:59:19;;;;;;;11.32;6.55;;;15.60;99.90;;;;;;5084793;28;20055;-50
2021/08/17 07:01:45;;;;;;;15.95;9.05;;;15.50;99.90;;;;;;5076758;28;20416;-53
2021/08/17 07:04:12;;;;;;;12.82;6.15;;;15.50;99.90;;;;;;5077144;28;20043;-52
2021/08/17 07:06:41;;;;;;;15.70;5.00;;;15.50;99.90;;;;;;5083717;28;20071;-54
2021/08/17 07:09:07;;;;;;;20.25;11.60;;;15.50;99.90;;;;;;5068677;28;20041;-54
2021/08/17 07:11:33;;;;;;;23.67;14.15;;;15.50;99.90;;;;;;5055380;28;20055;-51
2021/08/17 07:13:59;;;;;;;22.27;16.17;;;15.60;99.90;;;;;;5078437;28;20289;-54
2021/08/17 07:16:25;;;;;;;11.60;5.40;;;15.70;99.90;;;;;;5093480;28;20040;-51
2021/08/17 07:18:52;;;;;;;16.35;10.80;;;15.90;99.90;;;;;;5086511;28;20048;-50
2021/08/17 07:21:18;;;;;;;15.48;9.50;;;16.10;99.90;;;;;;5083805;28;20047;-49
2021/08/17 07:23:46;;;;;;;13.57;5.38;;;16.30;99.90;;;;;;5089131;28;20059;-49
2021/08/17 07:26:16;;;;;;;9.50;4.70;;;16.40;99.90;;;;;;5087620;28;20047;-50
2021/08/17 07:28:42;;;;;;;15.90;8.98;;;16.60;99.90;;;;;;5085048;28;20049;-49
2021/08/17 07:31:08;;;;;;;11.43;5.40;;;16.80;99.90;;;;;;5077643;28;20051;-50
2021/08/17 07:33:34;;;;;;;14.88;9.95;;;16.80;99.90;;;;;;5084985;28;20054;-50
2021/08/17 07:36:01;;;;;;;12.68;6.18;;;16.90;99.90;;;;;;5086359;28;20052;-48
2021/08/17 07:38:27;;;;;;;8.73;4.88;;;16.90;99.90;;;;;;5089889;28;20040;-48
2021/08/17 07:40:59;;;;;;;12.93;5.57;;;16.90;99.90;;;;;;5088815;28;20052;-49
2021/08/17 07:43:25;;;;;;;11.85;6.53;;;16.90;99.90;;;;;;5088764;28;20036;-49
2021/08/17 07:45:54;;;;;;;15.13;6.47;;;16.90;99.90;;;;;;5084923;28;20048;-50
2021/08/17 07:48:20;;;;;;;13.10;5.30;;;16.90;99.90;;;;;;5088102;28;20040;-52
2021/08/17 07:50:50;;;;;;;12.75;5.63;;;17.10;99.90;;;;;;5088807;28;20489;-49
2021/08/17 07:53:16;;;;;;;11.60;5.47;;;17.20;99.90;;;;;;5088437;28;20082;-49
2021/08/17 07:55:42;;;;;;;12.07;5.63;;;17.40;99.90;;;;;;5082234;28;20048;-46
2021/08/17 07:58:10;;;;;;;16.48;9.30;;;17.50;99.90;;;;;;5083619;28;20059;-50
2021/08/17 08:00:36;;;;;;;16.63;7.60;;;17.50;99.90;;;;;;5085534;28;20076;-50
2021/08/17 08:03:05;;;;;;;17.08;9.57;;;17.60;99.90;;;;;;5082393;28;20045;-50
2021/08/17 08:05:37;;;;;;;18.35;9.18;;;17.60;99.90;;;;;;5083842;28;20098;-49
2021/08/17 08:08:04;;;;;;;14.80;6.80;;;17.60;99.90;;;;;;5091575;28;20499;-49
2021/08/17 08:10:32;;;;;;;16.60;8.10;;;17.60;99.90;;;;;;5086969;28;20122;-48
2021/08/17 08:12:58;;;;;;;14.43;8.45;;;17.60;99.90;;;;;;5086609;28;20040;-47
2021/08/17 08:15:25;;;;;;;17.35;10.50;;;17.60;99.90;;;;;;5083166;28;20040;-48
2021/08/17 08:17:53;;;;;;;15.48;7.57;;;17.40;99.90;;;;;;5085339;28;20396;-52
2021/08/17 08:20:20;;;;;;;15.60;8.30;;;17.40;99.90;;;;;;5064291;28;20063;-49
2021/08/17 08:22:49;;;;;;;21.95;7.28;;;17.50;99.90;;;;;;5085995;28;20043;-49
2021/08/17 08:25:17;;;;;;;14.55;7.18;;;17.50;99.90;;;;;;5065928;28;20041;-50
2021/08/17 08:27:44;;;;;;;16.95;8.05;;;17.40;99.90;;;;;;5068591;28;20052;-47
2021/08/17 08:30:11;;;;;;;14.25;8.45;;;17.30;99.90;;;;;;5092018;28;20496;-49
2021/08/17 08:32:37;;;;;;;34.78;25.73;;;17.20;99.90;;;;;;5086009;28;20051;-49
2021/08/17 08:35:05;;;;;;;17.15;10.68;;;17.20;99.90;;;;;;5085105;28;20704;-48
2021/08/17 08:37:31;;;;;;;18.33;11.60;;;17.10;99.90;;;;;;5070710;28;20133;-49
2021/08/17 08:40:00;;;;;;;19.10;11.80;;;17.10;99.90;;;;;;5066390;28;20047;-48
2021/08/17 08:42:26;;;;;;;22.77;13.50;;;17.00;99.90;;;;;;5088132;28;20125;-49
2021/08/17 08:44:53;;;;;;;22.45;16.67;;;17.00;99.90;;;;;;5079436;28;20040;-49
2021/08/17 08:47:20;;;;;;;20.90;12.55;;;17.00;99.90;;;;;;5088489;28;20044;-49
2021/08/17 08:49:49;;;;;;;18.20;9.63;;;17.00;99.90;;;;;;5089913;28;20515;-49
2021/08/17 08:52:17;;;;;;;17.65;10.20;;;17.00;99.90;;;;;;5089663;28;20059;-49
2021/08/17 08:54:43;;;;;;;17.42;11.57;;;17.00;99.90;;;;;;5088822;28;20048;-50
2021/08/17 08:57:10;;;;;;;17.33;8.43;;;17.00;99.90;;;;;;5087485;28;20048;-46
2021/08/17 08:59:41;;;;;;;18.10;9.95;;;17.00;99.90;;;;;;5090264;28;20048;-48
2021/08/17 09:02:17;;;;;;;15.60;8.98;;;17.10;99.90;;;;;;5089753;28;20136;-50
2021/08/17 09:04:55;;;;;;;23.33;14.85;;;17.10;99.90;;;;;;5070911;28;20051;-49
2021/08/17 09:07:42;;;;;;;21.40;12.23;;;17.30;99.90;;;;;;5090161;28;20056;-49
2021/08/17 09:10:13;;;;;;;18.40;11.35;;;17.60;99.90;;;;;;5094878;28;20040;-52
2021/08/17 09:12:44;;;;;;;18.05;9.60;;;17.60;99.90;;;;;;5097008;28;20476;-49
2021/08/17 09:15:17;;;;;;;;;;;17.60;99.90;;;;;;5090712;28;20437;-47
2021/08/17 09:17:55;;;;;;;17.23;10.30;;;17.70;99.90;;;;;;5090123;28;19924;-49
2021/08/17 09:20:28;;;;;;;18.70;11.77;;;17.60;99.90;;;;;;5091785;28;20048;-48
2021/08/17 09:22:54;;;;;;;20.60;11.23;;;17.60;99.90;;;;;;5089270;28;20048;-47
2021/08/17 09:25:32;;;;;;;19.58;8.82;;;17.70;99.90;;;;;;5089569;28;20048;-46
2021/08/17 09:28:34;;;;;;;17.80;10.13;;;17.80;99.90;;;;;;5089903;28;20047;-48
2021/08/17 09:31:04;;;;;;;19.75;10.95;;;17.80;99.90;;;;;;5089294;28;20150;-47
2021/08/17 09:33:38;;;;;;;17.90;11.32;;;17.80;99.90;;;;;;5072500;28;20037;-48
2021/08/17 09:36:05;;;;;;;31.30;20.30;;;17.70;99.90;;;;;;5058523;28;20519;-46
2021/08/17 09:38:32;;;;;;;24.52;16.33;;;17.80;99.90;;;;;;5083876;28;20064;-47
2021/08/17 09:41:16;;;;;;;20.17;11.27;;;17.80;99.90;;;;;;5087808;28;20404;-46
2021/08/17 09:43:54;;;;;;;19.13;11.80;;;17.90;99.90;;;;;;5088750;28;20148;-48
2021/08/17 09:46:38;;;;;;;19.48;11.95;;;18.10;99.90;;;;;;5090453;28;20048;-47
2021/08/17 09:49:23;;;;;;;20.55;12.65;;;18.60;99.90;;;;;;5093770;28;20475;-49
2021/08/17 09:51:49;;;;;;;18.95;12.52;;;19.40;99.90;;;;;;5089111;28;20056;-46
2021/08/17 09:54:18;;;;;;;17.77;10.70;;;20.00;99.90;;;;;;5087910;28;20048;-50
2021/08/17 09:56:56;;;;;;;18.63;10.88;;;20.70;99.90;;;;;;5092127;28;20040;-48
2021/08/17 09:59:25;;;;;;;16.17;10.45;;;20.70;99.90;;;;;;5090570;28;20056;-48
2021/08/17 10:01:52;;;;;;;16.92;9.93;;;20.20;99.90;;;;;;5087790;28;20044;-49
2021/08/17 10:04:24;;;;;;;19.50;10.63;;;20.10;99.90;;;;;;5089317;28;20040;-50
2021/08/17 10:06:58;;;;;;;21.85;10.73;;;20.30;99.90;;;;;;5089377;28;20166;-47
2021/08/17 10:09:28;;;;;;;18.55;11.15;;;20.20;99.90;;;;;;5090316;28;20496;-50
2021/08/17 10:11:57;;;;;;;18.48;11.68;;;20.40;99.90;;;;;;5087203;28;20117;-46
2021/08/17 10:14:24;;;;;;;18.20;11.52;;;20.50;99.90;;;;;;5091153;28;20048;-48
2021/08/17 10:16:53;;;;;;;16.33;10.82;;;20.30;99.90;;;;;;5095712;28;20048;-49
2021/08/17 10:19:27;;;;;;;16.50;10.45;;;20.10;99.90;;;;;;5087617;28;20052;-50
2021/08/17 10:21:58;;;;;;;20.05;12.43;;;20.00;99.90;;;;;;5066214;28;20059;-48
2021/08/17 10:24:25;;;;;;;19.13;11.75;;;19.90;99.90;;;;;;5086779;28;20047;-47
2021/08/17 10:27:18;;;;;;;20.52;12.10;;;20.20;99.90;;;;;;5087945;28;20047;-47
2021/08/17 10:30:03;;;;;;;27.73;18.63;;;20.80;99.90;;;;;;5081550;28;20048;-48
2021/08/17 10:32:42;;;;;;;17.65;11.60;;;21.60;99.90;;;;;;5087481;28;20052;-47
2021/08/17 10:35:30;;;;;;;19.20;13.85;;;21.50;99.90;;;;;;5087605;28;20044;-49
2021/08/17 10:38:17;;;;;;;15.68;10.50;;;21.30;99.90;;;;;;5086663;28;20083;-45
2021/08/17 10:40:52;;;;;;;17.70;10.65;;;21.30;99.90;;;;;;5057435;28;20062;-46
2021/08/17 10:43:26;;;;;;;19.38;13.27;;;21.40;99.90;;;;;;5084228;28;20051;-48
2021/08/17 10:46:03;;;;;;;29.50;24.00;;;20.80;99.90;;;;;;5088993;28;20048;-45
2021/08/17 10:48:44;;;;;;;24.42;14.70;;;21.50;99.90;;;;;;5075491;28;20051;-52
2021/08/17 10:51:30;;;;;;;20.38;14.00;;;21.70;99.90;;;;;;5092977;28;20462;-45
2021/08/17 10:54:02;;;;;;;17.33;13.05;;;22.20;99.90;;;;;;5069038;28;20059;-47
2021/08/17 10:56:36;;;;;;;16.73;10.90;;;21.70;99.90;;;;;;5084673;28;20047;-49
2021/08/17 10:59:06;;;;;;;15.80;10.68;;;21.10;99.90;;;;;;5089080;28;20123;-47
2021/08/17 11:01:37;;;;;;;15.45;10.38;;;20.50;99.90;;;;;;5085586;28;20396;-46
2021/08/17 11:04:09;;;;;;;;;;;20.10;99.90;;;;;;5087204;28;20040;-46
2021/08/17 11:06:43;;;;;;;15.63;9.55;;;20.10;99.90;;;;;;5083970;28;19931;-49
2021/08/17 11:09:14;;;;;;;14.82;9.68;;;20.20;99.90;;;;;;5074810;28;20083;-47
2021/08/17 11:11:43;;;;;;;11.85;8.90;;;21.00;99.90;;;;;;5088816;28;20058;-49
2021/08/17 11:14:23;;;;;;;12.35;9.43;;;21.60;99.90;;;;;;5073655;28;20048;-50
2021/08/17 11:16:56;;;;;;;15.65;9.23;;;22.10;99.90;;;;;;5084396;28;20040;-49
2021/08/17 11:19:28;;;;;;;13.43;8.50;;;22.60;99.50;;;;;;5063500;28;20053;-49
2021/08/17 11:22:12;;;;;;;15.63;9.07;;;22.90;97.70;;;;;;5074021;28;20051;-48
2021/08/17 11:24:43;;;;;;;14.88;8.63;;;22.90;96.80;;;;;;5072859;28;20142;-49
2021/08/17 11:27:17;;;;;;;13.40;8.43;;;22.90;96.60;;;;;;5078717;28;20056;-52
2021/08/17 11:29:48;;;;;;;12.02;8.38;;;22.50;94.60;;;;;;5079413;28;20052;-49
2021/08/17 11:32:33;;;;;;;14.75;8.88;;;21.90;97.60;;;;;;5071084;28;20213;-47
2021/08/17 11:35:18;;;;;;;11.65;8.13;;;21.20;99.90;;;;;;5078789;28;20413;-51
2021/08/17 11:37:46;;;;;;;14.02;9.30;;;20.80;99.90;;;;;;5066296;28;20106;-50
2021/08/17 11:40:17;;;;;;;14.13;7.93;;;20.30;99.90;;;;;;5077689;28;20071;-48
2021/08/17 11:42:46;;;;;;;14.57;8.52;;;20.20;99.90;;;;;;5065363;28;20097;-50
2021/08/17 11:45:26;;;;;;;13.82;8.40;;;20.20;99.90;;;;;;5037097;28;20055;-48
2021/08/17 11:47:53;;;;;;;13.15;8.43;;;20.50;99.90;;;;;;5082821;28;20044;-51
2021/08/17 11:50:21;;;;;;;12.10;7.68;;;20.70;99.90;;;;;;5061600;28;20087;-50
2021/08/17 11:52:52;;;;;;;13.73;8.50;;;20.80;99.90;;;;;;5068190;28;20714;-50
2021/08/17 11:55:24;;;;;;;14.93;8.27;;;21.40;99.90;;;;;;5073960;28;20147;-50
2021/08/17 11:58:02;;;;;;;11.38;7.50;;;21.10;99.10;;;;;;5077960;28;20040;-49
2021/08/17 12:00:32;;;;;;;14.93;7.80;;;20.70;99.90;;;;;;5069140;28;20069;-51
2021/08/17 12:03:08;;;;;;;10.80;8.18;;;20.70;99.90;;;;;;5072616;28;20080;-50
2021/08/17 12:05:38;;;;;;;12.30;6.90;;;20.40;99.90;;;;;;5081225;28;20048;-48
2021/08/17 12:08:13;;;;;;;12.00;7.53;;;20.40;99.90;;;;;;5074191;28;20052;-47
2021/08/17 12:10:41;;;;;;;12.95;7.45;;;20.10;99.90;;;;;;5062768;28;20047;-48
2021/08/17 12:13:11;;;;;;;12.00;8.13;;;20.10;99.90;;;;;;5082022;28;20048;-49
2021/08/17 12:15:43;;;;;;;11.40;7.07;;;20.00;99.90;;;;;;5072940;28;20054;-50
2021/08/17 12:18:17;;;;;;;12.30;6.38;;;19.90;99.90;;;;;;5078958;28;20055;-50
2021/08/17 12:20:44;;;;;;;12.18;6.80;;;19.90;99.90;;;;;;5070685;28;20056;-45
2021/08/17 12:23:20;;;;;;;14.80;7.00;;;20.10;99.90;;;;;;5088506;28;20047;-47
2021/08/17 12:25:52;;;;;;;12.65;6.97;;;20.20;99.90;;;;;;5085758;28;20123;-50
2021/08/17 12:28:49;;;;;;;14.23;6.97;;;20.40;99.90;;;;;;5070554;28;20044;-46
2021/08/17 12:31:28;;;;;;;11.80;6.63;;;20.70;99.90;;;;;;5085113;28;20063;-48
2021/08/17 12:34:05;;;;;;;10.23;6.05;;;20.90;99.90;;;;;;5075167;28;20048;-48
2021/08/17 12:36:37;;;;;;;12.65;6.88;;;20.90;99.90;;;;;;5084986;28;20541;-49
2021/08/17 12:39:30;;;;;;;10.88;6.45;;;20.50;99.90;;;;;;5076009;28;20591;-48
2021/08/17 12:42:06;;;;;;;11.15;6.10;;;20.20;99.90;;;;;;5083875;28;20075;-49
2021/08/17 12:44:39;;;;;;;10.52;5.60;;;19.90;99.90;;;;;;5085955;28;20044;-46
2021/08/17 12:47:12;;;;;;;9.63;5.10;;;19.70;99.90;;;;;;5072999;28;20079;-49